Flight Track Log - Related Links

Times and Time Zones

All times are in EDT time to prevent confusion due to time zone crossing. See the N130RC flight status page for this flight to view local times or setup timezone preferences in your user account.

Time Position Orientation Groundspeed Altitude Reporting Facility
EDT Latitude Longitude Course Direction KTS MPH feet Rate Location/Type
Mon 03:53:18 PM 45.5292 -122.9447 189° South 84 97 900  Level Seattle Center
Mon 03:54:07 PM 45.5106 -122.9492 190° South 85 98 1,500 818 Climbing Seattle Center
Mon 03:55:08 PM 45.4861 -122.9561 191° South 88 101 2,400 934 Climbing Seattle Center
Mon 03:56:09 PM 45.4594 -122.9636 191° South 85 98 3,400 843 Climbing Seattle Center
Mon 03:57:09 PM 45.4647 -123.0014 281° West 111 128 4,100 347 Climbing Seattle Center
Mon 03:58:10 PM 45.4764 -123.0492 289° West 127 146 4,100 52 Level Seattle Center
Mon 03:59:04 PM 45.4886 -123.0881 294° West 123 142 4,200 -52 Climbing Seattle Center
Mon 04:00:05 PM 45.5067 -123.1317 301° West 136 157 4,000 -49 Descending Seattle Center
Mon 04:01:06 PM 45.5444 -123.1525 339° North 146 168 4,100 50 Climbing Seattle Center
Mon 04:02:06 PM 45.5819 -123.1739 338° Northwest 146 168 4,100 -50 Level Seattle Center
Mon 04:03:07 PM 45.6186 -123.1956 338° Northwest 144 166 4,000 -49 Descending Seattle Center
Mon 04:04:08 PM 45.6519 -123.2158 337° Northwest 137 158 4,000 47 Level Seattle Center
Mon 04:05:15 PM 45.6942 -123.2117 North 135 155 4,100 49 Climbing Seattle Center
Mon 04:06:10 PM 45.7192 -123.1842 38° Northeast 138 159 4,100  Level Seattle Center
Mon 04:07:11 PM 45.7158 -123.1411 96° East 130 150 4,100 -98 Level Seattle Center
Mon 04:08:12 PM 45.6981 -123.1089 128° Southeast 116 133 3,900 -295 Descending Seattle Center
Mon 04:09:13 PM 45.6769 -123.0919 151° Southeast 102 117 3,500 -520 Descending Seattle Center
Mon 04:10:19 PM 45.6517 -123.0714 150° Southeast 86 99 2,800 -492 Descending Seattle Center
Mon 04:11:15 PM 45.6353 -123.0522 141° Southeast 86 99 2,500 -462 Descending Seattle Center
Mon 04:12:16 PM 45.6150 -123.0294 142° Southeast 87 100 1,900 -545 Descending Seattle Center
Mon 04:13:27 PM 45.5886 -123.0042 146° Southeast 93 107 1,300 -496 Descending Seattle Center
Mon 04:14:17 PM 45.5744 -122.9858 138° Southeast 90 104 900 -378 Descending Seattle Center
Mon 04:15:18 PM 45.5539 -122.9636 143° Southeast 89 102 600  Descending Seattle Center
Mon 04:15:53 PM 45.5419 -122.9550 153° Southeast 101 116 900 689 Climbing Seattle Center
Mon 04:16:19 PM 45.5319 -122.9508 164° South 90 104 1,300 897 Climbing Seattle Center
Mon 04:17:20 PM 45.5042 -122.9617 195° South 98 113 2,200 810 Climbing Seattle Center
Mon 04:18:25 PM 45.4756 -122.9694 191° South 94 108 3,000 689 Climbing Seattle Center
Mon 04:19:22 PM 45.4814 -123.0072 282° West 121 139 3,600 472 Climbing Seattle Center
Mon 04:20:32 PM 45.5139 -123.0525 316° Northwest 142 163 4,000 246 Climbing Seattle Center
Mon 04:21:24 PM 45.5381 -123.0733 329° Northwest 140 161 4,100  Climbing Seattle Center
Mon 04:22:33 PM 45.5833 -123.1203 324° Northwest 156 180 4,000  Descending Seattle Center
Mon 04:23:26 PM 45.6153 -123.1500 327° Northwest 153 176 4,100 53 Climbing Seattle Center
Mon 04:24:27 PM 45.6492 -123.1811 327° Northwest 149 171 4,100 -49 Level Seattle Center
Mon 04:25:28 PM 45.6867 -123.1725 North 158 182 4,000 -148 Descending Seattle Center
Mon 04:26:29 PM 45.6956 -123.1242 75° East 149 171 3,800 -267 Descending Seattle Center
Mon 04:27:43 PM 45.6656 -123.0875 139° Southeast 111 128 3,400 -443 Descending Seattle Center
Mon 04:28:31 PM 45.6514 -123.0636 130° Southeast 116 133 2,900 -678 Descending Seattle Center
Mon 04:29:38 PM 45.6217 -123.0403 151° Southeast 98 113 2,100 -541 Descending Seattle Center
Mon 04:30:33 PM 45.6069 -123.0200 136° Southeast 102 117 1,800 -414 Descending Seattle Center
Mon 04:31:34 PM 45.5881 -122.9986 142° Southeast 94 108 1,300 -545 Descending Seattle Center
Mon 04:32:34 PM 45.5658 -122.9769 146° Southeast 94 108 700 -198 Descending Seattle Center
Mon 04:33:35 PM 45.5453 -122.9547 143° Southeast 93 107 900 541 Climbing Seattle Center
Mon 04:34:36 PM 45.5186 -122.9542 179° South 99 114 1,800 885 Climbing Seattle Center
Mon 04:35:37 PM 45.4950 -122.9631 195° South 92 106 2,700 934 Climbing Seattle Center
Mon 04:36:38 PM 45.4617 -122.9658 183° South 97 112 3,700 700 Climbing Seattle Center
Mon 04:37:37 PM 45.4636 -122.9958 275° West 142 163 4,100 200 Climbing Seattle Center
Mon 04:38:38 PM 45.4953 -123.0353 319° Northwest 153 176 4,100  Level Seattle Center
Mon 04:39:45 PM 45.5314 -123.0764 321° Northwest 156 180 4,100  Level Seattle Center
Mon 04:40:42 PM 45.5636 -123.1056 328° Northwest 154 177 4,100  Level Seattle Center
Mon 04:41:40 PM 45.6000 -123.1383 328° Northwest 153 176 4,100 202 Level Seattle Center
Mon 04:42:41 PM 45.6297 -123.1694 324° Northwest 124 143 4,500 393 Climbing Seattle Center
Mon 04:43:42 PM 45.6558 -123.2022 319° Northwest 130 150 4,900 288 Climbing Seattle Center
Mon 04:44:46 PM 45.6811 -123.2325 320° Northwest 124 143 5,100 96 Climbing Seattle Center
Mon 04:45:47 PM 45.7183 -123.2428 349° North 155 178 5,100 -344 Level Seattle Center
Mon 04:46:48 PM 45.7406 -123.1914 58° Northeast 151 174 4,400 -738 Descending Seattle Center
Mon 04:47:49 PM 45.7172 -123.1344 120° Southeast 144 166 3,600 -393 Descending Seattle Center
Mon 04:48:50 PM 45.6925 -123.1072 142° Southeast 129 148 3,600  Level Seattle Center
Mon 04:49:51 PM 45.6736 -123.0917 150° Southeast 108 124 3,600 -422 Level Seattle Center
Mon 04:50:58 PM 45.6464 -123.0672 148° Southeast 122 140 2,700 -639 Descending Seattle Center
Mon 04:51:53 PM 45.6292 -123.0458 139° Southeast 98 113 2,300 -517 Descending Seattle Center
Mon 04:52:54 PM 45.6058 -123.0200 142° Southeast 102 117 1,700 -545 Descending Seattle Center
Mon 04:53:54 PM 45.5850 -122.9964 142° Southeast 93 107 1,200 -492 Descending Seattle Center
Mon 04:54:56 PM 45.5639 -122.9744 144° Southeast 98 113 700 -246 Descending Seattle Center
Mon 04:55:56 PM 45.5600 -122.9694 138° Southeast 94 108 700  Level Seattle Center

Login

Don't have an account? Register now (free) for customized features, flight alerts, and more!